Latest Coastal Weather Observations for Neptune Island

IDT60701

Issued at 7:05 am EST Tuesday 2 September 2014 (issued every 10 minutes, with the page automatically refreshed every 10 minutes)

About coastal observations | Map of coastal stations | Coastal observations for TAS | Marine services | Other Formats
Station Details ID: 018115 Name: NEPTUNE ISLAND Lat: -35.34 Lon: 136.12 Height: 32.0 m
Data from the previous 72 hours. | See also: Recent months at Neptune Island
Date/Time
EST
Temp

°C
Wind Pressure Rain
since 9am
mm
Weather Cloud Vis
km
Sea
Height
m
Swell
Dir
 
Speed
knots
Gust
knots
hPa Trend Height
m
Period
s
Dir
02/07:00am 11.6 S 25 30 1024.7 - 0.2 - - - - - - -
02/06:30am 12.2 S 27 30 1024.4 - 0.2 - - - - - - -
02/06:00am 11.9 SSW 27 32 1023.9 - 0.2 - - - - - - -
02/05:30am 11.7 SSW 25 30 1023.5 - 0.2 - - - - - - -
02/05:00am 11.5 SW 26 35 1023.1 - 0.2 - - - - - - -
02/04:30am 12.0 SSW 27 32 1022.9 - 0.2 - - - - - - -
02/04:00am 11.7 SSW 26 33 1022.5 - 0.2 - - - - - - -
02/03:30am 12.0 SSW 25 31 1022.3 - 0.2 - - - - - - -
02/03:00am 11.8 SSW 29 33 1022.2 - 0.2 - - - - - - -
02/02:37am 11.8 SSW 27 37 1022.2 - 0.2 - - - - - - -
02/02:30am 11.4 SSW 31 37 1022.1 - 0.2 - - - - - - -
02/02:00am 11.8 SSW 29 35 1021.8 - 0.2 - - - - - - -
02/01:45am 11.9 SSW 27 37 1021.5 - 0.2 - - - - - - -
02/01:30am 11.7 SSW 30 35 1021.5 - 0.2 - - - - - - -
02/01:09am 11.6 SSW 29 39 1021.4 - 0.2 - - - - - - -
02/01:00am 11.8 SSW 29 35 1021.5 - 0.2 - - - - - - -
02/12:41am 11.8 SSW 28 43 1021.3 - 0.2 - - - - - - -
02/12:30am 11.8 SSW 28 35 1021.6 - 0.2 - - - - - - -
02/12:00am 12.1 SSW 28 38 1021.1 - 0.2 - - - - - - -
 
Date/Time
EST
Temp

°C
Wind Pressure Rain
since 9am
mm
Weather Cloud Vis
km
Sea
Height
m
Swell
Dir
 
Speed
knots
Gust
knots
hPa Trend Height
m
Period
s
Dir
01/11:33pm 11.8 SSW 26 36 1021.2 - 0.2 - - - - - - -
01/11:30pm 11.5 SSW 27 36 1021.2 - 0.2 - - - - - - -
01/11:00pm 12.1 SW 28 34 1021.1 - 0.2 - - - - - - -
01/10:48pm 11.4 SW 29 39 1021.2 - 0.2 - - - - - - -
01/10:30pm 12.3 SW 27 31 1020.8 - 0.2 - - - - - - -
01/10:00pm 11.9 SSW 26 32 1020.7 - 0.2 - - - - - - -
01/09:30pm 11.2 SW 30 40 1020.0 - 0.2 - - - - - - -
01/09:27pm 12.2 SW 29 40 1019.8 - 0.2 - - - - - - -
01/09:00pm 12.2 SW 28 35 1019.5 - 0.2 - - - - - - -
01/08:30pm 12.2 SW 29 35 1019.1 - 0.2 - - - - - - -
01/08:00pm 12.1 SW 31 38 1018.7 - 0.2 - - - - - - -
01/07:30pm 11.8 SW 32 37 1018.2 - 0.2 - - - - - - -
01/07:00pm 11.9 SSW 31 38 1017.4 - 0.2 - - - - - - -
01/06:30pm 12.2 SSW 30 38 1017.0 - 0.2 Recent precip. - - - - - -
01/06:04pm 12.4 SW 25 35 1016.5 - 0.0 - - - - - - -
01/06:00pm 12.2 SW 23 30 1016.4 - 0.0 - - - - - - -
01/05:54pm 11.2 SW 22 25 1016.6 - 0.0 - - - - - - -
01/05:53pm 11.3 SW 32 42 1016.5 - 0.0 - - - - - - -
01/05:42pm 11.8 SW 31 35 1016.1 - 0.0 - - - - - - -
01/05:30pm 11.9 SW 21 26 1016.4 - 0.0 - - - - - - -
01/05:00pm 12.3 SW 27 32 1015.9 - 0.0 - - - - - - -
01/04:46pm 11.8 SSW 32 42 1015.6 - 0.0 - - - - - - -
01/04:30pm 11.7 SSW 31 40 1015.4 - 0.0 - - - - - - -
01/04:13pm 11.6 SW 37 41 1015.0 - 0.0 - - - - - - -
01/04:12pm 12.1 SW 25 40 1015.1 - 0.0 - - - - - - -
01/04:00pm 13.6 SW 23 29 1015.0 - 0.0 - - - - - - -
01/03:30pm 13.5 SW 24 27 1014.8 - 0.0 - - - - - - -
01/03:00pm 13.8 SW 24 28 1014.5 - 0.0 - - - - - - -
01/02:30pm 13.6 SW 24 30 1014.4 - 0.0 - - - - - - -
01/02:01pm 13.4 WSW 24 36 1014.1 - 0.0 - - - - - - -
01/02:00pm 13.6 WSW 24 30 1014.3 - 0.0 - - - - - - -
01/01:30pm 13.4 WSW 19 23 1014.6 - 0.0 - - - - - - -
01/01:00pm 13.6 WSW 18 21 1014.7 - 0.0 - - - - - - -
01/12:30pm 12.6 WSW 25 31 1014.7 - 0.0 - - - - - - -
01/12:04pm 13.7 WSW 31 33 1014.4 - 0.0 - - - - - - -
01/12:02pm 14.5 WSW 19 34 1014.5 - 0.0 - - - - - - -
01/12:00pm 14.9 WSW 18 21 1014.6 - 0.0 - - - - - - -
01/11:30am 14.5 WSW 19 21 1014.5 - 0.0 - - - - - - -
01/11:00am 13.8 SW 17 20 1014.5 - 0.0 - - - - - - -
01/10:30am 13.3 WSW 16 19 1014.5 - 0.0 - - - - - - -
01/10:00am 13.7 WSW 16 19 1014.4 - 0.0 - - - - - - -
01/09:30am 13.6 SW 19 23 1014.2 - 2.6 - - - - - - -
01/09:00am 13.2 WSW 20 24 1014.0 - 2.6 - - - - - - -
01/08:30am 13.0 SW 18 21 1013.8 - 2.6 - - - - - - -
01/08:00am 12.7 SW 18 21 1013.2 - 2.6 - - - - - - -
01/07:30am 12.6 SW 18 23 1012.9 - 2.6 - - - - - - -
01/07:00am 12.8 SW 20 23 1012.7 - 2.6 - - - - - - -
01/06:30am 12.7 SW 18 22 1012.3 - 2.6 - - - - - - -
01/06:00am 12.5 SW 15 18 1012.1 - 2.6 - - - - - - -
01/05:33am 11.9 SW 16 26 1012.1 - 2.6 - - - - - - -
01/05:30am 11.8 SW 19 26 1012.0 - 2.6 - - - - - - -
01/05:00am 12.8 SW 19 22 1011.6 - 2.6 - - - - - - -
01/04:30am 13.1 SW 18 21 1011.3 - 2.6 - - - - - - -
01/04:00am 13.1 SW 15 19 1011.2 - 2.6 - - - - - - -
01/03:30am 12.8 SSW 15 19 1011.1 - 2.6 - - - - - - -
01/03:00am 12.7 SSW 20 25 1011.2 - 2.6 - - - - - - -
01/02:30am 13.3 SW 21 25 1011.0 - 2.6 - - - - - - -
01/02:00am 13.3 SW 23 27 1011.3 - 2.6 - - - - - - -
01/01:30am 12.9 SW 20 25 1011.5 - 2.6 - - - - - - -
01/01:00am 13.3 SW 17 26 1011.1 - 2.4 - - - - - - -
01/12:58am 13.2 SW 15 25 1011.1 - 2.4 - - - - - - -
01/12:30am 13.7 WSW 16 19 1011.4 - 1.2 Recent precip. - - - - - -
01/12:00am 14.1 WSW 19 21 1011.5 - 1.0 - - - - - - -
 
Date/Time
EST
Temp

°C
Wind Pressure Rain
since 9am
mm
Weather Cloud Vis
km
Sea
Height
m
Swell
Dir
 
Speed
knots
Gust
knots
hPa Trend Height
m
Period
s
Dir
31/11:30pm 14.2 WSW 18 22 1011.2 - 1.0 - - - - - - -
31/11:00pm 14.2 SW 19 22 1011.2 - 1.0 - - - - - - -
31/10:30pm 14.2 SW 19 22 1011.0 - 1.0 - - - - - - -
31/10:00pm 14.2 SW 19 23 1011.1 - 1.0 - - - - - - -
31/09:30pm 14.3 WSW 17 20 1010.9 - 1.0 - - - - - - -
31/09:00pm 14.1 WSW 14 16 1010.8 - 1.0 - - - - - - -
31/08:30pm 14.1 WSW 15 18 1011.0 - 1.0 - - - - - - -
31/08:00pm 13.9 WSW 16 22 1011.1 - 1.0 - - - - - - -
31/07:30pm 14.0 WSW 13 16 1011.2 - 0.8 - - - - - - -
31/07:00pm 13.8 WSW 17 20 1010.8 - 0.8 - - - - - - -
31/06:30pm 14.3 WSW 17 19 1010.5 - 0.2 Rain - - - - - -
31/06:00pm 14.4 WSW 17 19 1010.0 - 0.0 - - - - - - -
31/05:30pm 14.6 WSW 20 24 1009.8 - 0.0 - - - - - - -
31/05:00pm 15.0 WSW 21 25 1009.3 - 0.0 - - - - - - -
31/04:30pm 15.5 WSW 21 24 1009.1 - 0.0 - - - - - - -
31/04:00pm 16.2 W 19 23 1008.8 - 0.0 - - - - - - -
31/03:30pm 16.6 W 17 20 1008.8 - 0.0 - - - - - - -
31/03:00pm 16.7 WNW 19 23 1009.3 - 0.0 - - - - - - -
31/02:30pm 16.4 WNW 15 18 1009.3 - 0.0 - - - - - - -
31/02:00pm 16.5 NNW 11 14 1009.6 - 0.0 - - - - - - -
31/01:30pm 16.6 NW 13 16 1009.9 - 0.0 - - - - - - -
31/01:00pm 16.3 NW 13 15 1010.4 - 0.0 - - - - - - -
31/12:42pm 16.4 NNW 15 18 1010.7 - 0.0 - - - - - - -
31/12:30pm 16.5 NW 6 8 1010.3 - 0.0 - - - - - - -
31/12:00pm 16.8 NNW 9 12 1010.2 - 0.0 - - - - - - -
31/11:30am 16.2 NNW 13 18 1011.0 - 0.0 - - - - - - -
31/11:00am 16.1 N 16 20 1011.7 - 0.0 - - - - - - -
31/10:30am 16.1 NNW 12 14 1011.8 - 0.0 - - - - - - -
31/10:00am 16.3 N 12 15 1012.3 - 0.0 - - - - - - -
31/09:30am 16.0 N 14 16 1012.6 - 0.0 - - - - - - -
31/09:00am 15.7 N 14 15 1012.1 - 0.0 - - - - - - -
31/08:30am 15.7 N 13 16 1011.8 - 0.0 - - - - - - -
31/08:00am 15.4 N 9 11 1011.9 - 0.0 - - - - - - -
31/07:30am 15.5 N 14 18 1011.6 - 0.0 - - - - - - -
31/07:00am 15.6 N 13 15 1011.4 - 0.0 - - - - - - -
31/06:30am 15.8 N 12 14 1012.0 - 0.0 - - - - - - -
31/06:00am 16.0 N 14 16 1012.1 - 0.0 - - - - - - -
31/05:30am 15.8 N 14 16 1012.1 - 0.0 - - - - - - -
31/05:00am 15.9 N 13 15 1011.9 - 0.0 - - - - - - -
31/04:30am 15.8 NW 10 13 1012.5 - 0.0 - - - - - - -
31/04:00am 15.9 NW 11 14 1012.7 - 0.0 - - - - - - -
31/03:30am 16.1 N 15 19 1012.7 - 0.0 - - - - - - -
31/03:00am 16.4 N 17 19 1012.4 - 0.0 - - - - - - -
31/02:30am 16.4 N 16 18 1012.8 - 0.0 - - - - - - -
31/02:00am 16.5 N 17 18 1013.0 - 0.0 - - - - - - -
31/01:30am 16.7 N 18 21 1012.8 - 0.0 - - - - - - -
31/01:00am 16.3 N 15 18 1013.1 - 0.0 - - - - - - -
31/12:30am 16.1 N 15 18 1013.3 - 0.0 - - - - - - -
31/12:00am 16.6 N 18 21 1013.9 - 0.0 - - - - - - -
 
Date/Time
EST
Temp

°C
Wind Pressure Rain
since 9am
mm
Weather Cloud Vis
km
Sea
Height
m
Swell
Dir
 
Speed
knots
Gust
knots
hPa Trend Height
m
Period
s
Dir
30/11:30pm 16.4 N 19 22 1013.8 - 0.0 - - - - - - -
30/11:00pm 16.6 N 18 20 1014.3 - 0.0 - - - - - - -
30/10:30pm 16.4 N 17 19 1014.6 - 0.0 - - - - - - -
30/10:00pm 16.5 N 18 20 1014.7 - 0.0 - - - - - - -
30/09:30pm 16.3 N 18 20 1014.7 - 0.0 - - - - - - -
30/09:00pm 16.3 N 19 22 1014.8 - 0.0 - - - - - - -
30/08:30pm 15.9 N 17 20 1015.0 - 0.0 - - - - - - -
30/08:00pm 15.7 N 17 19 1015.2 - 0.0 - - - - - - -
30/07:30pm 15.8 NNE 17 19 1015.3 - 0.0 - - - - - - -
30/07:00pm 15.9 NNE 17 19 1015.5 - 0.0 - - - - - - -
30/06:30pm 16.0 NNE 17 20 1015.5 - 0.0 - - - - - - -
30/06:00pm 15.9 NNE 16 18 1015.7 - 0.0 - - - - - - -
30/05:30pm 15.9 NNE 13 17 1015.7 - 0.0 - - - - - - -
30/05:00pm 16.0 NNE 15 19 1016.0 - 0.0 - - - - - - -
30/04:30pm 16.7 NNE 15 18 1016.1 - 0.0 - - - - - - -
30/04:00pm 17.3 NNE 15 19 1016.3 - 0.0 - - - - - - -
30/03:30pm 17.5 NNE 15 17 1016.5 - 0.0 - - - - - - -
30/03:00pm 17.7 NNE 17 20 1016.8 - 0.0 - - - - - - -
30/02:30pm 17.2 NNE 15 18 1017.2 - 0.0 - - - - - - -
30/02:00pm 18.4 N 13 15 1017.8 - 0.0 - - - - - - -
30/01:30pm 18.2 N 14 16 1018.4 - 0.0 - - - - - - -
30/01:00pm 17.4 N 17 20 1018.7 - 0.0 - - - - - - -
30/12:30pm 17.6 NNE 17 19 1019.1 - 0.0 - - - - - - -
30/12:00pm 17.8 NNE 17 19 1019.4 - 0.0 - - - - - - -
30/11:30am 17.5 N 15 17 1020.0 - 0.0 - - - - - - -
30/11:00am 16.8 N 17 19 1020.1 - 0.0 - - - - - - -
30/10:30am 17.2 N 17 20 1020.4 - 0.0 - - - - - - -
30/10:00am 17.1 N 16 18 1020.6 - 0.0 - - - - - - -
30/09:30am 16.5 N 15 17 1020.8 - 0.0 - - - - - - -
30/09:00am 16.3 N 16 18 1021.0 - 0.0 - - - - - - -
30/08:30am 15.8 N 15 17 1020.8 - 0.0 - - - - - - -
30/08:00am 15.5 N 14 16 1020.5 - 0.0 - - - - - - -

Other Formats:

Comma delimited format used in spreadsheet applications
http://www.bom.gov.au/fwo/IDT60701/IDT60701.94804.axf

JavaScript Object Notation format (JSON) in row-major order
http://www.bom.gov.au/fwo/IDT60701/IDT60701.94804.json